Hyattville, Wyoming
Current Conditions -  °F | °C
As of 11:53 PM on Wednesday 22 Oct 2014 (Local Time) from KWRL Reporting Station
Light Snow Light Snow  
Wind Chill: 29°   Ceiling: Unl
Heat Index: 34°   Visibility: 9mi
Dew Point: 19°   Wind: 6mph
Humidity: 54%   Direction: 90°E
Pressure: 30.04"   Gusts: NA
Location:  44.25°N, 107.6°W
Report Text: KWRL 230553Z AUTO 09005KT 9SM -SN CLR 01/M07 A3004 RMK AO2 SNB45 SLP178 P0000 60000 T00111072 10117 20006 50002
Loading
Personal Weather Stations






























Interactive Weather Map
Tropical Storm Tracking
New forecast layout! Learn more

10-Day Weather Forecast

Advertisements
Track Severe Weather on mobile